sensor_id;sensor_type;location;lat;lon;timestamp;P1;durP1;ratioP1;P2;durP2;ratioP2
23232;SDS011;11785;49.500;8.288;2023-02-15T00:01:36;105.88;;;30.80;;
23232;SDS011;11785;49.500;8.288;2023-02-15T00:04:02;129.75;;;31.70;;
23232;SDS011;11785;49.500;8.288;2023-02-15T00:06:29;103.05;;;29.95;;
23232;SDS011;11785;49.500;8.288;2023-02-15T00:08:55;103.68;;;29.15;;
23232;SDS011;11785;49.500;8.288;2023-02-15T00:11:21;120.13;;;29.17;;
23232;SDS011;11785;49.500;8.288;2023-02-15T00:14:06;111.50;;;30.77;;
23232;SDS011;11785;49.500;8.288;2023-02-15T00:16:34;111.72;;;31.10;;
23232;SDS011;11785;49.500;8.288;2023-02-15T00:19:00;111.25;;;29.63;;
23232;SDS011;11785;49.500;8.288;2023-02-15T00:21:27;108.20;;;32.45;;
23232;SDS011;11785;49.500;8.288;2023-02-15T00:23:54;97.55;;;28.90;;
23232;SDS011;11785;49.500;8.288;2023-02-15T00:26:20;104.68;;;26.63;;
23232;SDS011;11785;49.500;8.288;2023-02-15T00:28:45;100.00;;;29.98;;
23232;SDS011;11785;49.500;8.288;2023-02-15T00:31:11;113.18;;;28.73;;
23232;SDS011;11785;49.500;8.288;2023-02-15T00:33:40;104.03;;;28.75;;
23232;SDS011;11785;49.500;8.288;2023-02-15T00:36:06;117.55;;;30.17;;
23232;SDS011;11785;49.500;8.288;2023-02-15T00:38:33;98.85;;;29.02;;
23232;SDS011;11785;49.500;8.288;2023-02-15T00:41:00;108.38;;;28.35;;
23232;SDS011;11785;49.500;8.288;2023-02-15T00:43:28;106.32;;;27.30;;
23232;SDS011;11785;49.500;8.288;2023-02-15T00:45:55;101.00;;;26.92;;
23232;SDS011;11785;49.500;8.288;2023-02-15T00:48:21;108.22;;;27.95;;
23232;SDS011;11785;49.500;8.288;2023-02-15T00:50:52;96.40;;;27.70;;
23232;SDS011;11785;49.500;8.288;2023-02-15T00:53:20;119.95;;;32.05;;
23232;SDS011;11785;49.500;8.288;2023-02-15T00:55:46;97.97;;;28.20;;
23232;SDS011;11785;49.500;8.288;2023-02-15T00:58:12;91.40;;;27.90;;
23232;SDS011;11785;49.500;8.288;2023-02-15T01:00:37;103.80;;;28.95;;
23232;SDS011;11785;49.500;8.288;2023-02-15T01:03:04;85.60;;;26.80;;
23232;SDS011;11785;49.500;8.288;2023-02-15T01:05:30;93.45;;;28.77;;
23232;SDS011;11785;49.500;8.288;2023-02-15T01:07:57;81.93;;;27.90;;
23232;SDS011;11785;49.500;8.288;2023-02-15T01:10:23;81.22;;;28.23;;
23232;SDS011;11785;49.500;8.288;2023-02-15T01:12:52;83.70;;;26.90;;
23232;SDS011;11785;49.500;8.288;2023-02-15T01:15:19;89.75;;;28.83;;
23232;SDS011;11785;49.500;8.288;2023-02-15T01:17:45;81.88;;;28.65;;
23232;SDS011;11785;49.500;8.288;2023-02-15T01:20:16;82.05;;;27.00;;
23232;SDS011;11785;49.500;8.288;2023-02-15T01:22:45;79.30;;;27.70;;
23232;SDS011;11785;49.500;8.288;2023-02-15T01:25:12;96.53;;;26.63;;
23232;SDS011;11785;49.500;8.288;2023-02-15T01:27:37;93.03;;;27.90;;
23232;SDS011;11785;49.500;8.288;2023-02-15T01:30:03;96.75;;;29.23;;
23232;SDS011;11785;49.500;8.288;2023-02-15T01:32:29;86.15;;;27.73;;
23232;SDS011;11785;49.500;8.288;2023-02-15T01:34:55;94.28;;;28.80;;
23232;SDS011;11785;49.500;8.288;2023-02-15T01:37:21;94.45;;;30.67;;
23232;SDS011;11785;49.500;8.288;2023-02-15T01:39:46;104.13;;;30.75;;
23232;SDS011;11785;49.500;8.288;2023-02-15T01:42:12;110.75;;;28.40;;
23232;SDS011;11785;49.500;8.288;2023-02-15T01:44:51;109.57;;;29.90;;
23232;SDS011;11785;49.500;8.288;2023-02-15T01:47:33;92.43;;;29.23;;
23232;SDS011;11785;49.500;8.288;2023-02-15T01:52:40;100.78;;;29.58;;
23232;SDS011;11785;49.500;8.288;2023-02-15T01:55:13;92.93;;;27.23;;
23232;SDS011;11785;49.500;8.288;2023-02-15T01:57:39;95.18;;;28.52;;
23232;SDS011;11785;49.500;8.288;2023-02-15T02:00:06;99.82;;;29.83;;
23232;SDS011;11785;49.500;8.288;2023-02-15T02:02:33;100.57;;;29.45;;
23232;SDS011;11785;49.500;8.288;2023-02-15T02:05:00;94.45;;;29.45;;
23232;SDS011;11785;49.500;8.288;2023-02-15T02:07:31;93.38;;;28.77;;
23232;SDS011;11785;49.500;8.288;2023-02-15T02:09:59;84.50;;;28.33;;
23232;SDS011;11785;49.500;8.288;2023-02-15T02:12:26;87.60;;;27.05;;
23232;SDS011;11785;49.500;8.288;2023-02-15T02:14:52;109.60;;;28.98;;
23232;SDS011;11785;49.500;8.288;2023-02-15T02:42:04;73.60;;;24.75;;
23232;SDS011;11785;49.500;8.288;2023-02-15T02:47:09;66.45;;;24.30;;
23232;SDS011;11785;49.500;8.288;2023-02-15T02:49:47;75.75;;;24.88;;
23232;SDS011;11785;49.500;8.288;2023-02-15T02:52:37;65.43;;;24.13;;
23232;SDS011;11785;49.500;8.288;2023-02-15T02:57:52;77.07;;;24.20;;
23232;SDS011;11785;49.500;8.288;2023-02-15T03:00:56;73.53;;;23.88;;
23232;SDS011;11785;49.500;8.288;2023-02-15T03:03:37;54.65;;;18.33;;
23232;SDS011;11785;49.500;8.288;2023-02-15T03:06:28;73.80;;;24.38;;
23232;SDS011;11785;49.500;8.288;2023-02-15T03:09:57;72.03;;;25.10;;
23232;SDS011;11785;49.500;8.288;2023-02-15T03:12:15;70.57;;;23.52;;
23232;SDS011;11785;49.500;8.288;2023-02-15T03:14:52;65.93;;;23.65;;
23232;SDS011;11785;49.500;8.288;2023-02-15T03:17:22;50.72;;;17.85;;
23232;SDS011;11785;49.500;8.288;2023-02-15T03:19:51;66.97;;;23.48;;
23232;SDS011;11785;49.500;8.288;2023-02-15T03:22:33;72.55;;;24.58;;
23232;SDS011;11785;49.500;8.288;2023-02-15T03:27:36;77.53;;;26.65;;
23232;SDS011;11785;49.500;8.288;2023-02-15T03:30:05;72.13;;;24.15;;
23232;SDS011;11785;49.500;8.288;2023-02-15T03:32:33;68.97;;;24.00;;
23232;SDS011;11785;49.500;8.288;2023-02-15T03:35:00;72.20;;;23.95;;
23232;SDS011;11785;49.500;8.288;2023-02-15T03:37:43;73.53;;;27.98;;
23232;SDS011;11785;49.500;8.288;2023-02-15T03:46:16;55.63;;;18.97;;
23232;SDS011;11785;49.500;8.288;2023-02-15T03:48:57;67.18;;;23.70;;
23232;SDS011;11785;49.500;8.288;2023-02-15T03:51:33;67.07;;;23.02;;
23232;SDS011;11785;49.500;8.288;2023-02-15T03:56:28;72.25;;;23.90;;
23232;SDS011;11785;49.500;8.288;2023-02-15T03:58:54;69.35;;;23.10;;
23232;SDS011;11785;49.500;8.288;2023-02-15T04:01:39;71.53;;;22.92;;
23232;SDS011;11785;49.500;8.288;2023-02-15T04:04:23;64.85;;;22.58;;
23232;SDS011;11785;49.500;8.288;2023-02-15T04:07:01;62.47;;;22.15;;
23232;SDS011;11785;49.500;8.288;2023-02-15T04:09:27;62.10;;;21.73;;
23232;SDS011;11785;49.500;8.288;2023-02-15T04:12:11;62.15;;;21.13;;
23232;SDS011;11785;49.500;8.288;2023-02-15T04:14:37;53.92;;;19.50;;
23232;SDS011;11785;49.500;8.288;2023-02-15T04:17:21;56.70;;;20.42;;
23232;SDS011;11785;49.500;8.288;2023-02-15T04:19:47;65.38;;;21.58;;
23232;SDS011;11785;49.500;8.288;2023-02-15T04:22:31;55.58;;;19.70;;
23232;SDS011;11785;49.500;8.288;2023-02-15T04:25:15;52.55;;;19.45;;
23232;SDS011;11785;49.500;8.288;2023-02-15T04:27:45;45.35;;;18.88;;
23232;SDS011;11785;49.500;8.288;2023-02-15T04:30:13;51.60;;;19.13;;
23232;SDS011;11785;49.500;8.288;2023-02-15T04:32:40;56.85;;;20.25;;
23232;SDS011;11785;49.500;8.288;2023-02-15T04:35:06;46.78;;;18.50;;
23232;SDS011;11785;49.500;8.288;2023-02-15T04:37:33;46.30;;;18.58;;
23232;SDS011;11785;49.500;8.288;2023-02-15T04:39:58;43.22;;;17.88;;
23232;SDS011;11785;49.500;8.288;2023-02-15T04:42:24;46.03;;;19.05;;
23232;SDS011;11785;49.500;8.288;2023-02-15T04:44:51;47.25;;;18.33;;
23232;SDS011;11785;49.500;8.288;2023-02-15T04:47:17;48.55;;;18.98;;
23232;SDS011;11785;49.500;8.288;2023-02-15T04:49:43;44.67;;;18.92;;
23232;SDS011;11785;49.500;8.288;2023-02-15T04:52:08;44.88;;;18.98;;
23232;SDS011;11785;49.500;8.288;2023-02-15T04:54:34;47.30;;;19.15;;
23232;SDS011;11785;49.500;8.288;2023-02-15T04:57:00;53.22;;;18.80;;
23232;SDS011;11785;49.500;8.288;2023-02-15T04:59:26;44.22;;;17.40;;
23232;SDS011;11785;49.500;8.288;2023-02-15T05:01:51;49.03;;;18.42;;
23232;SDS011;11785;49.500;8.288;2023-02-15T05:04:17;44.95;;;18.25;;
23232;SDS011;11785;49.500;8.288;2023-02-15T05:06:43;46.92;;;17.63;;
23232;SDS011;11785;49.500;8.288;2023-02-15T05:09:11;53.83;;;20.17;;
23232;SDS011;11785;49.500;8.288;2023-02-15T05:11:37;51.65;;;19.60;;
23232;SDS011;11785;49.500;8.288;2023-02-15T05:14:03;50.13;;;19.55;;
23232;SDS011;11785;49.500;8.288;2023-02-15T05:16:29;48.45;;;20.13;;
23232;SDS011;11785;49.500;8.288;2023-02-15T05:18:55;53.58;;;19.35;;
23232;SDS011;11785;49.500;8.288;2023-02-15T05:21:20;52.42;;;20.45;;
23232;SDS011;11785;49.500;8.288;2023-02-15T05:23:46;45.60;;;18.75;;
23232;SDS011;11785;49.500;8.288;2023-02-15T05:26:16;50.90;;;20.30;;
23232;SDS011;11785;49.500;8.288;2023-02-15T05:29:02;49.53;;;19.58;;
23232;SDS011;11785;49.500;8.288;2023-02-15T05:31:28;51.63;;;19.90;;
23232;SDS011;11785;49.500;8.288;2023-02-15T05:33:55;54.65;;;19.17;;
23232;SDS011;11785;49.500;8.288;2023-02-15T05:36:21;54.45;;;19.38;;
23232;SDS011;11785;49.500;8.288;2023-02-15T05:38:46;43.95;;;17.92;;
23232;SDS011;11785;49.500;8.288;2023-02-15T05:41:12;50.95;;;19.70;;
23232;SDS011;11785;49.500;8.288;2023-02-15T05:43:37;43.97;;;18.05;;
23232;SDS011;11785;49.500;8.288;2023-02-15T05:46:03;45.28;;;18.67;;
23232;SDS011;11785;49.500;8.288;2023-02-15T05:48:29;52.72;;;21.35;;
23232;SDS011;11785;49.500;8.288;2023-02-15T05:50:56;74.32;;;36.88;;
23232;SDS011;11785;49.500;8.288;2023-02-15T05:53:41;153.30;;;64.68;;
23232;SDS011;11785;49.500;8.288;2023-02-15T05:56:08;71.93;;;27.58;;
23232;SDS011;11785;49.500;8.288;2023-02-15T05:58:35;57.63;;;24.23;;
23232;SDS011;11785;49.500;8.288;2023-02-15T06:01:15;51.28;;;22.65;;
23232;SDS011;11785;49.500;8.288;2023-02-15T06:03:42;52.45;;;21.40;;
23232;SDS011;11785;49.500;8.288;2023-02-15T06:06:09;51.72;;;20.13;;
23232;SDS011;11785;49.500;8.288;2023-02-15T06:08:35;59.15;;;24.40;;
23232;SDS011;11785;49.500;8.288;2023-02-15T06:11:02;47.58;;;19.73;;
23232;SDS011;11785;49.500;8.288;2023-02-15T06:13:28;61.53;;;21.27;;
23232;SDS011;11785;49.500;8.288;2023-02-15T06:15:54;60.17;;;20.15;;
23232;SDS011;11785;49.500;8.288;2023-02-15T06:18:20;47.85;;;19.30;;
23232;SDS011;11785;49.500;8.288;2023-02-15T06:20:45;57.53;;;19.38;;
23232;SDS011;11785;49.500;8.288;2023-02-15T06:23:11;44.95;;;19.15;;
23232;SDS011;11785;49.500;8.288;2023-02-15T06:25:37;43.97;;;18.33;;
23232;SDS011;11785;49.500;8.288;2023-02-15T06:28:03;40.60;;;18.65;;
23232;SDS011;11785;49.500;8.288;2023-02-15T06:30:28;48.85;;;19.30;;
23232;SDS011;11785;49.500;8.288;2023-02-15T06:32:54;48.58;;;18.23;;
23232;SDS011;11785;49.500;8.288;2023-02-15T06:35:19;43.63;;;17.45;;
23232;SDS011;11785;49.500;8.288;2023-02-15T06:37:46;43.97;;;17.42;;
23232;SDS011;11785;49.500;8.288;2023-02-15T06:40:12;42.13;;;17.02;;
23232;SDS011;11785;49.500;8.288;2023-02-15T06:42:38;48.13;;;17.67;;
23232;SDS011;11785;49.500;8.288;2023-02-15T06:45:03;45.08;;;18.45;;
23232;SDS011;11785;49.500;8.288;2023-02-15T06:47:29;42.75;;;16.27;;
23232;SDS011;11785;49.500;8.288;2023-02-15T06:49:55;50.78;;;18.73;;
23232;SDS011;11785;49.500;8.288;2023-02-15T06:52:20;46.67;;;19.10;;
23232;SDS011;11785;49.500;8.288;2023-02-15T06:54:46;51.55;;;19.33;;
23232;SDS011;11785;49.500;8.288;2023-02-15T06:57:11;44.35;;;18.17;;
23232;SDS011;11785;49.500;8.288;2023-02-15T06:59:37;46.72;;;18.58;;
23232;SDS011;11785;49.500;8.288;2023-02-15T07:02:02;44.97;;;18.85;;
23232;SDS011;11785;49.500;8.288;2023-02-15T07:04:28;43.70;;;18.42;;
23232;SDS011;11785;49.500;8.288;2023-02-15T07:06:54;46.33;;;18.05;;
23232;SDS011;11785;49.500;8.288;2023-02-15T07:09:20;47.40;;;18.55;;
23232;SDS011;11785;49.500;8.288;2023-02-15T07:11:46;46.67;;;17.10;;
23232;SDS011;11785;49.500;8.288;2023-02-15T07:16:55;41.78;;;16.27;;
23232;SDS011;11785;49.500;8.288;2023-02-15T07:19:21;36.22;;;16.80;;
23232;SDS011;11785;49.500;8.288;2023-02-15T07:21:47;42.03;;;18.08;;
23232;SDS011;11785;49.500;8.288;2023-02-15T07:24:13;44.88;;;16.73;;
23232;SDS011;11785;49.500;8.288;2023-02-15T07:26:39;43.28;;;17.80;;
23232;SDS011;11785;49.500;8.288;2023-02-15T07:29:04;43.03;;;17.42;;
23232;SDS011;11785;49.500;8.288;2023-02-15T07:31:30;43.70;;;18.13;;
23232;SDS011;11785;49.500;8.288;2023-02-15T07:33:55;39.13;;;16.73;;
23232;SDS011;11785;49.500;8.288;2023-02-15T07:36:21;42.30;;;17.10;;
23232;SDS011;11785;49.500;8.288;2023-02-15T07:38:46;42.22;;;17.83;;
23232;SDS011;11785;49.500;8.288;2023-02-15T07:41:13;41.50;;;17.38;;
23232;SDS011;11785;49.500;8.288;2023-02-15T07:43:40;39.95;;;17.00;;
23232;SDS011;11785;49.500;8.288;2023-02-15T07:46:11;42.03;;;16.98;;
23232;SDS011;11785;49.500;8.288;2023-02-15T07:48:40;39.90;;;16.27;;
23232;SDS011;11785;49.500;8.288;2023-02-15T07:51:06;47.28;;;16.80;;
23232;SDS011;11785;49.500;8.288;2023-02-15T07:53:34;45.28;;;17.73;;
23232;SDS011;11785;49.500;8.288;2023-02-15T07:56:00;36.70;;;16.67;;
23232;SDS011;11785;49.500;8.288;2023-02-15T07:58:27;41.88;;;17.88;;
23232;SDS011;11785;49.500;8.288;2023-02-15T08:01:12;45.03;;;17.73;;
23232;SDS011;11785;49.500;8.288;2023-02-15T08:03:38;40.15;;;16.70;;
23232;SDS011;11785;49.500;8.288;2023-02-15T08:06:04;44.92;;;16.85;;
23232;SDS011;11785;49.500;8.288;2023-02-15T08:08:29;41.05;;;17.13;;
23232;SDS011;11785;49.500;8.288;2023-02-15T08:11:03;45.55;;;17.23;;
23232;SDS011;11785;49.500;8.288;2023-02-15T08:13:51;46.97;;;17.73;;
23232;SDS011;11785;49.500;8.288;2023-02-15T08:18:49;35.90;;;16.75;;
23232;SDS011;11785;49.500;8.288;2023-02-15T08:21:16;46.70;;;17.73;;
23232;SDS011;11785;49.500;8.288;2023-02-15T08:23:42;41.00;;;16.95;;
23232;SDS011;11785;49.500;8.288;2023-02-15T08:26:07;42.50;;;16.65;;
23232;SDS011;11785;49.500;8.288;2023-02-15T08:28:33;41.13;;;16.30;;
23232;SDS011;11785;49.500;8.288;2023-02-15T08:31:17;41.90;;;17.27;;
23232;SDS011;11785;49.500;8.288;2023-02-15T08:33:44;35.67;;;16.40;;
23232;SDS011;11785;49.500;8.288;2023-02-15T08:36:11;37.15;;;16.50;;
23232;SDS011;11785;49.500;8.288;2023-02-15T08:38:39;37.25;;;16.05;;
23232;SDS011;11785;49.500;8.288;2023-02-15T08:41:12;38.13;;;17.10;;
23232;SDS011;11785;49.500;8.288;2023-02-15T08:43:46;37.00;;;16.88;;
23232;SDS011;11785;49.500;8.288;2023-02-15T08:46:14;37.25;;;16.55;;
23232;SDS011;11785;49.500;8.288;2023-02-15T08:48:41;47.97;;;18.00;;
23232;SDS011;11785;49.500;8.288;2023-02-15T08:51:08;40.92;;;17.02;;
23232;SDS011;11785;49.500;8.288;2023-02-15T08:53:46;40.15;;;17.33;;
23232;SDS011;11785;49.500;8.288;2023-02-15T08:56:14;38.85;;;17.38;;
23232;SDS011;11785;49.500;8.288;2023-02-15T08:58:41;43.72;;;18.90;;
23232;SDS011;11785;49.500;8.288;2023-02-15T09:03:36;36.17;;;17.05;;
23232;SDS011;11785;49.500;8.288;2023-02-15T09:06:01;43.03;;;17.50;;
23232;SDS011;11785;49.500;8.288;2023-02-15T09:08:27;40.97;;;17.42;;
23232;SDS011;11785;49.500;8.288;2023-02-15T09:10:53;33.10;;;16.75;;
23232;SDS011;11785;49.500;8.288;2023-02-15T09:13:20;38.05;;;17.88;;
23232;SDS011;11785;49.500;8.288;2023-02-15T09:15:46;40.45;;;16.92;;
23232;SDS011;11785;49.500;8.288;2023-02-15T09:18:12;37.85;;;17.27;;
23232;SDS011;11785;49.500;8.288;2023-02-15T09:20:42;36.55;;;16.20;;
23232;SDS011;11785;49.500;8.288;2023-02-15T09:23:08;35.75;;;17.17;;
23232;SDS011;11785;49.500;8.288;2023-02-15T09:25:34;38.15;;;17.45;;
23232;SDS011;11785;49.500;8.288;2023-02-15T09:27:59;34.60;;;16.40;;
23232;SDS011;11785;49.500;8.288;2023-02-15T09:30:25;37.50;;;17.33;;
23232;SDS011;11785;49.500;8.288;2023-02-15T09:32:50;37.47;;;17.10;;
23232;SDS011;11785;49.500;8.288;2023-02-15T09:35:16;34.72;;;16.52;;
23232;SDS011;11785;49.500;8.288;2023-02-15T09:37:41;35.35;;;15.07;;
23232;SDS011;11785;49.500;8.288;2023-02-15T09:40:07;30.92;;;15.55;;
23232;SDS011;11785;49.500;8.288;2023-02-15T10:01:53;35.15;;;16.48;;
23232;SDS011;11785;49.500;8.288;2023-02-15T10:04:36;34.08;;;16.60;;
23232;SDS011;11785;49.500;8.288;2023-02-15T10:10:19;37.65;;;18.15;;
23232;SDS011;11785;49.500;8.288;2023-02-15T10:19:03;30.35;;;15.50;;
23232;SDS011;11785;49.500;8.288;2023-02-15T10:24:28;37.75;;;17.00;;
23232;SDS011;11785;49.500;8.288;2023-02-15T10:27:09;33.42;;;15.18;;
23232;SDS011;11785;49.500;8.288;2023-02-15T10:29:38;43.15;;;16.70;;
23232;SDS011;11785;49.500;8.288;2023-02-15T10:38:21;40.17;;;17.48;;
23232;SDS011;11785;49.500;8.288;2023-02-15T10:46:43;40.60;;;17.70;;
23232;SDS011;11785;49.500;8.288;2023-02-15T10:49:34;27.67;;;13.43;;
23232;SDS011;11785;49.500;8.288;2023-02-15T10:52:10;41.83;;;18.67;;
23232;SDS011;11785;49.500;8.288;2023-02-15T10:55:15;38.15;;;18.08;;
23232;SDS011;11785;49.500;8.288;2023-02-15T11:00:27;43.08;;;18.67;;
23232;SDS011;11785;49.500;8.288;2023-02-15T11:08:32;43.58;;;18.60;;
23232;SDS011;11785;49.500;8.288;2023-02-15T11:11:03;44.70;;;19.05;;
23232;SDS011;11785;49.500;8.288;2023-02-15T11:13:34;42.30;;;19.65;;
23232;SDS011;11785;49.500;8.288;2023-02-15T11:18:45;47.70;;;20.67;;
23232;SDS011;11785;49.500;8.288;2023-02-15T11:23:51;45.95;;;20.00;;
23232;SDS011;11785;49.500;8.288;2023-02-15T11:29:10;50.95;;;21.10;;
23232;SDS011;11785;49.500;8.288;2023-02-15T11:31:47;39.78;;;19.30;;
23232;SDS011;11785;49.500;8.288;2023-02-15T11:36:52;41.83;;;20.08;;
23232;SDS011;11785;49.500;8.288;2023-02-15T11:39:21;47.92;;;22.15;;
23232;SDS011;11785;49.500;8.288;2023-02-15T11:41:49;44.92;;;21.35;;
23232;SDS011;11785;49.500;8.288;2023-02-15T11:46:48;42.53;;;20.48;;
23232;SDS011;11785;49.500;8.288;2023-02-15T11:51:48;45.85;;;20.35;;
23232;SDS011;11785;49.500;8.288;2023-02-15T11:54:15;54.80;;;22.05;;
23232;SDS011;11785;49.500;8.288;2023-02-15T11:56:43;44.85;;;21.00;;
23232;SDS011;11785;49.500;8.288;2023-02-15T11:59:10;49.85;;;21.98;;
23232;SDS011;11785;49.500;8.288;2023-02-15T12:01:46;47.40;;;22.88;;
23232;SDS011;11785;49.500;8.288;2023-02-15T12:06:55;51.10;;;23.95;;
23232;SDS011;11785;49.500;8.288;2023-02-15T12:12:36;54.85;;;21.98;;
23232;SDS011;11785;49.500;8.288;2023-02-15T12:15:04;55.60;;;22.95;;
23232;SDS011;11785;49.500;8.288;2023-02-15T12:17:38;55.75;;;24.75;;
23232;SDS011;11785;49.500;8.288;2023-02-15T12:22:39;55.17;;;23.77;;
23232;SDS011;11785;49.500;8.288;2023-02-15T12:28:00;54.97;;;22.70;;
23232;SDS011;11785;49.500;8.288;2023-02-15T12:30:34;55.90;;;24.17;;
23232;SDS011;11785;49.500;8.288;2023-02-15T12:33:15;57.38;;;24.17;;
23232;SDS011;11785;49.500;8.288;2023-02-15T12:35:47;51.55;;;22.15;;
23232;SDS011;11785;49.500;8.288;2023-02-15T12:38:21;53.42;;;23.40;;
23232;SDS011;11785;49.500;8.288;2023-02-15T12:40:56;52.47;;;23.13;;
23232;SDS011;11785;49.500;8.288;2023-02-15T12:43:29;49.92;;;23.08;;
23232;SDS011;11785;49.500;8.288;2023-02-15T12:46:12;55.25;;;24.70;;
23232;SDS011;11785;49.500;8.288;2023-02-15T12:48:44;48.58;;;23.50;;
23232;SDS011;11785;49.500;8.288;2023-02-15T12:51:13;50.80;;;23.55;;
23232;SDS011;11785;49.500;8.288;2023-02-15T12:53:39;50.17;;;23.08;;
23232;SDS011;11785;49.500;8.288;2023-02-15T12:56:06;53.47;;;22.70;;
23232;SDS011;11785;49.500;8.288;2023-02-15T12:58:37;48.78;;;22.05;;
23232;SDS011;11785;49.500;8.288;2023-02-15T13:06:18;48.53;;;23.92;;
23232;SDS011;11785;49.500;8.288;2023-02-15T13:08:46;49.50;;;23.55;;
23232;SDS011;11785;49.500;8.288;2023-02-15T13:11:19;54.20;;;25.38;;
23232;SDS011;11785;49.500;8.288;2023-02-15T13:13:54;52.17;;;25.05;;
23232;SDS011;11785;49.500;8.288;2023-02-15T13:16:34;56.47;;;25.98;;
23232;SDS011;11785;49.500;8.288;2023-02-15T13:19:12;58.72;;;25.98;;
23232;SDS011;11785;49.500;8.288;2023-02-15T13:21:51;56.63;;;25.60;;
23232;SDS011;11785;49.500;8.288;2023-02-15T13:24:20;64.47;;;27.40;;
23232;SDS011;11785;49.500;8.288;2023-02-15T13:26:47;62.22;;;26.85;;
23232;SDS011;11785;49.500;8.288;2023-02-15T13:29:27;61.42;;;26.08;;
23232;SDS011;11785;49.500;8.288;2023-02-15T13:31:55;53.63;;;25.08;;
23232;SDS011;11785;49.500;8.288;2023-02-15T13:34:36;58.08;;;25.33;;
23232;SDS011;11785;49.500;8.288;2023-02-15T13:37:06;63.15;;;26.88;;
23232;SDS011;11785;49.500;8.288;2023-02-15T13:42:35;59.03;;;24.38;;
23232;SDS011;11785;49.500;8.288;2023-02-15T13:48:19;56.15;;;25.17;;
23232;SDS011;11785;49.500;8.288;2023-02-15T13:51:02;62.97;;;26.02;;
23232;SDS011;11785;49.500;8.288;2023-02-15T14:08:21;66.85;;;28.13;;
23232;SDS011;11785;49.500;8.288;2023-02-15T14:13:42;63.78;;;25.15;;
23232;SDS011;11785;49.500;8.288;2023-02-15T14:22:08;59.42;;;26.33;;
23232;SDS011;11785;49.500;8.288;2023-02-15T14:24:43;57.88;;;25.95;;
23232;SDS011;11785;49.500;8.288;2023-02-15T14:30:15;61.10;;;26.75;;
23232;SDS011;11785;49.500;8.288;2023-02-15T14:32:46;65.80;;;27.00;;
23232;SDS011;11785;49.500;8.288;2023-02-15T14:35:20;61.15;;;27.42;;
23232;SDS011;11785;49.500;8.288;2023-02-15T14:37:58;45.80;;;21.45;;
23232;SDS011;11785;49.500;8.288;2023-02-15T14:40:42;66.15;;;27.90;;
23232;SDS011;11785;49.500;8.288;2023-02-15T14:43:44;59.22;;;26.30;;
23232;SDS011;11785;49.500;8.288;2023-02-15T14:48:46;50.03;;;23.48;;
23232;SDS011;11785;49.500;8.288;2023-02-15T14:54:06;56.53;;;24.98;;
23232;SDS011;11785;49.500;8.288;2023-02-15T14:56:32;47.88;;;23.40;;
23232;SDS011;11785;49.500;8.288;2023-02-15T14:58:59;51.60;;;23.95;;
23232;SDS011;11785;49.500;8.288;2023-02-15T15:01:50;49.70;;;23.55;;
23232;SDS011;11785;49.500;8.288;2023-02-15T15:04:28;51.20;;;25.25;;
23232;SDS011;11785;49.500;8.288;2023-02-15T15:12:54;52.92;;;24.33;;
23232;SDS011;11785;49.500;8.288;2023-02-15T15:17:56;53.85;;;25.98;;
23232;SDS011;11785;49.500;8.288;2023-02-15T15:20:40;51.05;;;26.08;;
23232;SDS011;11785;49.500;8.288;2023-02-15T15:25:42;57.17;;;26.10;;
23232;SDS011;11785;49.500;8.288;2023-02-15T15:30:58;61.88;;;27.13;;
23232;SDS011;11785;49.500;8.288;2023-02-15T15:33:49;63.90;;;27.95;;
23232;SDS011;11785;49.500;8.288;2023-02-15T15:45:06;55.50;;;24.17;;
23232;SDS011;11785;49.500;8.288;2023-02-15T15:50:42;52.20;;;24.80;;
23232;SDS011;11785;49.500;8.288;2023-02-15T15:53:17;55.97;;;25.88;;
23232;SDS011;11785;49.500;8.288;2023-02-15T15:55:47;53.42;;;24.73;;
23232;SDS011;11785;49.500;8.288;2023-02-15T15:58:16;61.90;;;26.20;;
23232;SDS011;11785;49.500;8.288;2023-02-15T16:00:47;64.00;;;27.67;;
23232;SDS011;11785;49.500;8.288;2023-02-15T16:03:23;57.95;;;27.50;;
23232;SDS011;11785;49.500;8.288;2023-02-15T16:05:50;62.20;;;27.00;;
23232;SDS011;11785;49.500;8.288;2023-02-15T16:10:51;60.60;;;26.92;;
23232;SDS011;11785;49.500;8.288;2023-02-15T16:13:17;59.97;;;26.83;;
23232;SDS011;11785;49.500;8.288;2023-02-15T16:15:44;59.53;;;27.48;;
23232;SDS011;11785;49.500;8.288;2023-02-15T16:18:15;62.38;;;28.92;;
23232;SDS011;11785;49.500;8.288;2023-02-15T16:20:42;68.13;;;29.05;;
23232;SDS011;11785;49.500;8.288;2023-02-15T16:29:15;58.30;;;25.07;;
23232;SDS011;11785;49.500;8.288;2023-02-15T16:31:42;56.35;;;25.33;;
23232;SDS011;11785;49.500;8.288;2023-02-15T16:34:20;60.45;;;26.50;;
23232;SDS011;11785;49.500;8.288;2023-02-15T16:36:46;59.13;;;26.00;;
23232;SDS011;11785;49.500;8.288;2023-02-15T16:39:20;57.60;;;26.02;;
23232;SDS011;11785;49.500;8.288;2023-02-15T16:41:46;61.65;;;26.85;;
23232;SDS011;11785;49.500;8.288;2023-02-15T16:44:19;67.43;;;26.98;;
23232;SDS011;11785;49.500;8.288;2023-02-15T16:46:46;58.75;;;26.75;;
23232;SDS011;11785;49.500;8.288;2023-02-15T16:49:23;59.45;;;26.42;;
23232;SDS011;11785;49.500;8.288;2023-02-15T16:51:56;63.05;;;26.42;;
23232;SDS011;11785;49.500;8.288;2023-02-15T16:54:24;59.25;;;25.67;;
23232;SDS011;11785;49.500;8.288;2023-02-15T16:56:51;55.92;;;25.55;;
23232;SDS011;11785;49.500;8.288;2023-02-15T16:59:38;58.33;;;23.85;;
23232;SDS011;11785;49.500;8.288;2023-02-15T17:02:16;60.90;;;26.42;;
23232;SDS011;11785;49.500;8.288;2023-02-15T17:04:43;65.68;;;27.17;;
23232;SDS011;11785;49.500;8.288;2023-02-15T17:07:16;66.07;;;28.55;;
23232;SDS011;11785;49.500;8.288;2023-02-15T17:09:53;57.88;;;26.08;;
23232;SDS011;11785;49.500;8.288;2023-02-15T17:15:24;57.65;;;24.73;;
23232;SDS011;11785;49.500;8.288;2023-02-15T17:17:51;63.85;;;26.10;;
23232;SDS011;11785;49.500;8.288;2023-02-15T17:20:17;59.03;;;25.63;;
23232;SDS011;11785;49.500;8.288;2023-02-15T17:22:43;63.15;;;27.40;;
23232;SDS011;11785;49.500;8.288;2023-02-15T17:25:14;57.67;;;25.85;;
23232;SDS011;11785;49.500;8.288;2023-02-15T17:27:49;62.40;;;27.55;;
23232;SDS011;11785;49.500;8.288;2023-02-15T17:30:20;54.95;;;23.85;;
23232;SDS011;11785;49.500;8.288;2023-02-15T17:33:02;57.80;;;25.35;;
23232;SDS011;11785;49.500;8.288;2023-02-15T17:35:32;54.78;;;24.67;;
23232;SDS011;11785;49.500;8.288;2023-02-15T17:38:05;58.33;;;25.40;;
23232;SDS011;11785;49.500;8.288;2023-02-15T17:40:42;62.85;;;25.95;;
23232;SDS011;11785;49.500;8.288;2023-02-15T17:43:08;62.40;;;26.83;;
23232;SDS011;11785;49.500;8.288;2023-02-15T17:45:34;67.18;;;27.75;;
23232;SDS011;11785;49.500;8.288;2023-02-15T17:48:04;68.40;;;27.17;;
23232;SDS011;11785;49.500;8.288;2023-02-15T17:50:31;63.47;;;26.90;;
23232;SDS011;11785;49.500;8.288;2023-02-15T17:52:58;61.58;;;26.00;;
23232;SDS011;11785;49.500;8.288;2023-02-15T17:55:25;62.35;;;26.95;;
23232;SDS011;11785;49.500;8.288;2023-02-15T17:58:15;62.22;;;26.33;;
23232;SDS011;11785;49.500;8.288;2023-02-15T18:00:56;64.32;;;26.38;;
23232;SDS011;11785;49.500;8.288;2023-02-15T18:03:48;67.80;;;27.33;;
23232;SDS011;11785;49.500;8.288;2023-02-15T18:06:34;65.57;;;27.08;;
23232;SDS011;11785;49.500;8.288;2023-02-15T18:09:21;69.10;;;27.85;;
23232;SDS011;11785;49.500;8.288;2023-02-15T18:14:57;69.70;;;26.85;;